Aeroporto :







RITROVATECI SU...

 
LOGIN :

Iscrizione | Disclaimer

   EN    FR    IT 

 









Sommario :    VFR   VFR Marginale   IFR   IFR Intensivo   IFR Molto Intensivo
Visibilità : 
Base nubi : 
>= 8 km
>= 3000ft
5 / 8 km
1000 / 3000 ft
1500m / 5 km
500 / 1000 ft
800 / 1500m
200 / 500 ft
< 800m
< 200 ft
Simboli :   Temporali  Nebbia  Neve Forte  Precipitazioni Forti  Vento > 20 kt






- Altitudine del aeroporto : 237 ft
- Codice IATA : BQN


TJBQ - Rafael Hernandez

ULTIMO METAR :
  • 281250Z 10012KT 10SM CLR 28/23 A2996

METARs OBSOLETI :
  • 281150Z 11008KT 10SM CLR 26/23 A2995
  • 281050Z 11006KT 10SM SCT020 STC033 SCT039 24/23 A2993

TAF TJBQ
Valido dal 28 a 12 ore il 29 a 12 ore UTC


281120Z 2812/2912 10007KT P6SM FEW025
FM281400 08018KT P6SM SCT025
FM282300 10007KT P6SM VCSH SCT025 SCT050
FIR TJZS / America del Nord



MetMap, La meteo Aeronautica in un colpo d'occhio ! - Copyright ORBIFLY Dicembre 2007 - Disclaimer

ORBIFLY MET'MAP TEAM :

Programmazione e sviluppo : Alexandra Zaïnal
Concezione : Baudouin d'Aumeries
Aiuto per la programmazione : Marc-Olivier Méhu
Supporto tecnico e logistico : Manuel Goepfert
Aiuto per la traduzione : Arnaldo La Scala

Contatto : metmap@orbifly.com




FONTI E CREDITI :

   NOAA